Huvudsida
METAR-TAF:

METAR-TAF

Flygplatser :

Svolværs flygplats. Helle

Svolvær, Norge

latitud: 68-15N, longitud: 014-40E, höjd: 0 m

Aktuellt väderrapport

Denna rapport gjordes för 16 minuter sedan, klockan 09:50 UTC
Vind 10 kt från sydväst
Temperatur 4°C
Fuktighet 81%
Tryck 998 hPa
Sikt 10 km eller mer
Spridda moln på en höjd av 1500 ft
Spridda moln på en höjd av 3000 ft
skurar i närheten

METAR: ENSH 200950Z 23010KT 9999 VCSH SCT015 SCT030 04/01 Q0998 RMK WIND 150FT 20019KT

Tid: 11:06 (10:06 UTC)

Väderprognos

Denna rapport gjordes för 2 timmar och 6 minuter sedan, klockan 08:00 UTC
Prognos gäller från 20 kl. 09 UTC till 20 kl. 18 UTC
Vind 12 kt från sydväst
Sikt 10 km eller mer
Få moln på en höjd av 900 ft
Brutna moln på en höjd av 2500 ft
Temporärt
från 20 kl. 09 UTC till 20 kl. 18 UTC
Sikt: 4000 m
Brutna moln på en höjd av 1200 ft
regnskurar

TAF: ENSH 200800Z 2009/2018 22012KT 9999 FEW009 BKN025 TEMPO 2009/2018 4000 SHRA BKN012

Aktuella väderrapporter och prognoser från 4000 flygplatser (METAR- och TAF-rapporter).

De tillgängliga stationerna syns som gula och röda prickar på kartan.

För musen över prickarna för att se namnen på stationerna.

Klicka sedan för att få väderrapporter och prognoser.

För att ändra kartan: Klicka på de gröna knapparna med ett svart kors på för att zooma in; den gröna knappen med ett streck på för att zooma ut; eller på de gröna pilarna för angränsande kartor.


METAR-TAF: